createdAt,value
2019-01-31T00:00:58.180Z,1.80
2019-01-31T00:03:40.271Z,1.80
2019-01-31T00:06:22.153Z,1.80
2019-01-31T00:09:05.889Z,1.80
2019-01-31T00:11:48.035Z,1.70
2019-01-31T00:14:30.473Z,1.70
2019-01-31T00:17:12.613Z,1.70
2019-01-31T00:19:55.225Z,1.70
2019-01-31T00:22:37.202Z,1.80
2019-01-31T00:25:19.801Z,1.70
2019-01-31T00:28:02.413Z,1.70
2019-01-31T00:30:44.743Z,1.70
2019-01-31T00:33:26.805Z,1.80
2019-01-31T00:36:09.310Z,1.80
2019-01-31T00:38:56.913Z,1.80
2019-01-31T00:41:36.077Z,1.80
2019-01-31T00:44:18.297Z,1.70
2019-01-31T00:47:00.394Z,1.60
2019-01-31T00:49:42.683Z,1.60
2019-01-31T00:52:24.666Z,1.60
2019-01-31T00:55:06.612Z,1.60
2019-01-31T00:57:48.807Z,1.50
2019-01-31T01:00:31.582Z,1.50
2019-01-31T01:03:14.485Z,1.50
2019-01-31T01:05:56.612Z,1.50
2019-01-31T01:08:38.443Z,1.60
2019-01-31T01:11:20.465Z,1.60
2019-01-31T01:14:02.309Z,1.70
2019-01-31T01:16:44.898Z,1.70
2019-01-31T01:19:27.110Z,1.70
2019-01-31T01:22:09.113Z,1.80
2019-01-31T01:24:51.805Z,1.80
2019-01-31T01:27:33.637Z,1.80
2019-01-31T01:30:15.839Z,1.80
2019-01-31T01:32:58.431Z,1.80
2019-01-31T01:35:40.843Z,1.70
2019-01-31T01:38:22.822Z,1.70
2019-01-31T01:41:04.807Z,1.70
2019-01-31T01:43:47.358Z,1.70
2019-01-31T01:46:29.129Z,1.70
2019-01-31T01:49:11.195Z,1.70
2019-01-31T01:51:53.310Z,1.60
2019-01-31T01:54:35.740Z,1.60
2019-01-31T01:57:17.603Z,1.50
2019-01-31T01:59:59.600Z,1.50
2019-01-31T02:02:41.683Z,1.50
2019-01-31T02:05:23.715Z,1.60
2019-01-31T02:08:05.898Z,1.60
2019-01-31T02:10:47.906Z,1.60
2019-01-31T02:13:29.781Z,1.60
2019-01-31T02:16:11.851Z,1.60
2019-01-31T02:18:54.082Z,1.60
2019-01-31T02:21:35.977Z,1.70
2019-01-31T02:24:17.951Z,1.60
2019-01-31T02:27:00.415Z,1.60
2019-01-31T02:29:43.222Z,1.60
2019-01-31T02:32:25.951Z,1.60
2019-01-31T02:35:08.011Z,1.50
2019-01-31T02:37:51.833Z,1.60
2019-01-31T02:40:33.935Z,1.60
2019-01-31T02:43:16.063Z,1.40
2019-01-31T02:45:57.876Z,1.30
2019-01-31T02:48:40.201Z,1.10
2019-01-31T02:51:22.807Z,1.20
2019-01-31T02:54:05.283Z,1.10
2019-01-31T02:56:47.671Z,0.90
2019-01-31T02:59:30.078Z,1.00
2019-01-31T03:02:12.220Z,1.00
2019-01-31T03:04:54.689Z,0.90
2019-01-31T03:07:37.531Z,1.00
2019-01-31T03:10:20.150Z,1.00
2019-01-31T03:13:02.433Z,1.10
2019-01-31T03:15:44.568Z,1.00
2019-01-31T03:18:26.608Z,0.90
2019-01-31T03:21:08.849Z,1.00
2019-01-31T03:23:50.962Z,1.00
2019-01-31T03:26:33.002Z,0.90
2019-01-31T03:29:15.534Z,0.90
2019-01-31T03:31:57.556Z,0.90
2019-01-31T03:34:40.053Z,0.80
2019-01-31T03:37:21.965Z,0.80
2019-01-31T03:40:06.840Z,0.70
2019-01-31T03:42:48.343Z,0.70
2019-01-31T03:45:30.107Z,0.70
2019-01-31T03:48:12.550Z,0.70
2019-01-31T03:50:54.908Z,0.60
2019-01-31T03:53:36.858Z,0.40
2019-01-31T03:56:19.223Z,0.30
2019-01-31T03:59:01.384Z,0.30
2019-01-31T04:01:43.343Z,0.40
2019-01-31T04:04:25.613Z,0.50
2019-01-31T04:07:07.747Z,0.50
2019-01-31T04:09:49.660Z,0.40
2019-01-31T04:12:31.633Z,0.50
2019-01-31T04:15:13.807Z,0.60
2019-01-31T04:17:55.911Z,0.60
2019-01-31T04:20:38.243Z,0.60
2019-01-31T04:23:20.378Z,0.50
2019-01-31T04:26:02.075Z,0.40
2019-01-31T04:28:44.154Z,0.30
2019-01-31T04:31:26.127Z,0.30
2019-01-31T04:34:08.700Z,0.20
2019-01-31T04:36:51.482Z,0.30
2019-01-31T04:39:33.320Z,0.40
2019-01-31T04:42:15.545Z,0.30
2019-01-31T04:44:57.431Z,0.50
2019-01-31T04:47:39.715Z,0.50
2019-01-31T04:50:21.979Z,0.50
2019-01-31T04:53:03.945Z,0.50
2019-01-31T04:55:45.944Z,0.60
2019-01-31T04:58:28.156Z,0.50
2019-01-31T05:01:10.257Z,0.40
2019-01-31T05:03:52.723Z,0.40
2019-01-31T05:06:35.083Z,0.30
2019-01-31T05:09:17.732Z,0.20
2019-01-31T05:11:59.695Z,0.20
2019-01-31T05:14:42.005Z,0.20
2019-01-31T05:17:24.261Z,0.20
2019-01-31T05:20:06.439Z,0.20
2019-01-31T05:22:48.817Z,0.10
2019-01-31T05:25:30.655Z,0.00
2019-01-31T05:28:13.451Z,0.00
2019-01-31T05:30:55.338Z,0.10
2019-01-31T05:33:37.746Z,0.20
2019-01-31T05:36:19.784Z,0.10
2019-01-31T05:39:02.246Z,0.00
2019-01-31T05:41:44.259Z,-0.10
2019-01-31T05:44:26.861Z,0.00
2019-01-31T05:47:08.568Z,0.10
2019-01-31T05:49:50.883Z,0.10
2019-01-31T05:52:32.748Z,0.00
2019-01-31T05:55:15.204Z,0.00
2019-01-31T05:57:57.551Z,-0.10
2019-01-31T06:00:39.797Z,-0.10
2019-01-31T06:03:21.864Z,-0.20
2019-01-31T06:06:04.440Z,-0.10
2019-01-31T06:08:46.868Z,-0.10
2019-01-31T06:11:29.542Z,-0.20
2019-01-31T06:14:12.005Z,-0.30
2019-01-31T06:16:53.951Z,-0.50
2019-01-31T06:19:36.438Z,-0.50
2019-01-31T06:22:18.677Z,-0.50
2019-01-31T06:25:01.089Z,-0.60
2019-01-31T06:27:43.339Z,-0.60
2019-01-31T06:30:25.477Z,-0.50
2019-01-31T06:33:07.975Z,-0.50
2019-01-31T06:35:50.624Z,-0.60
2019-01-31T06:38:32.810Z,-0.70
2019-01-31T06:41:18.726Z,-0.90
2019-01-31T06:43:58.722Z,-0.90
2019-01-31T06:46:41.639Z,-0.70
2019-01-31T06:49:23.525Z,-0.60
2019-01-31T06:52:05.285Z,-0.50
2019-01-31T06:54:47.283Z,-0.70
2019-01-31T06:57:29.352Z,-0.70
2019-01-31T07:00:11.595Z,-0.70
2019-01-31T07:02:54.435Z,-0.60
2019-01-31T07:05:37.055Z,-0.40
2019-01-31T07:08:19.375Z,-0.40
2019-01-31T07:11:00.176Z,-0.50
2019-01-31T07:13:49.770Z,-0.30
2019-01-31T07:16:39.539Z,-0.30
2019-01-31T07:22:58.856Z,-0.20
2019-01-31T07:25:48.586Z,-0.20
2019-01-31T07:28:38.285Z,-0.30
2019-01-31T07:31:27.911Z,-0.20
2019-01-31T07:40:32.914Z,-0.20
2019-01-31T07:43:42.187Z,-0.10
2019-01-31T07:46:32.214Z,-0.10
2019-01-31T07:49:21.871Z,0.10
2019-01-31T07:52:11.479Z,0.30
2019-01-31T08:04:50.949Z,0.50
2019-01-31T08:07:42.301Z,0.60
2019-01-31T08:14:10.169Z,0.60
2019-01-31T08:16:59.823Z,0.60
2019-01-31T08:19:49.462Z,0.60
2019-01-31T08:22:39.249Z,0.70
2019-01-31T08:25:28.961Z,0.60
2019-01-31T08:28:38.019Z,0.70
2019-01-31T08:31:27.618Z,0.70
2019-01-31T08:34:17.250Z,0.70
2019-01-31T08:37:06.909Z,0.70
2019-01-31T08:39:56.571Z,0.80
2019-01-31T08:46:35.287Z,1.00
2019-01-31T08:49:25.106Z,0.90
2019-01-31T08:52:16.737Z,0.90
2019-01-31T08:55:06.467Z,0.90
2019-01-31T08:57:56.066Z,1.10
2019-01-31T09:00:45.698Z,1.10
2019-01-31T09:03:47.008Z,1.00
2019-01-31T09:06:29.266Z,1.00
2019-01-31T09:09:11.710Z,1.00
2019-01-31T09:11:54.112Z,1.00
2019-01-31T09:14:36.302Z,1.00
2019-01-31T09:17:18.364Z,1.00
2019-01-31T09:20:00.784Z,1.10
2019-01-31T09:22:43.078Z,1.20
2019-01-31T09:25:25.303Z,1.20
2019-01-31T09:28:07.737Z,1.20
2019-01-31T09:30:50.207Z,1.20
2019-01-31T09:33:32.763Z,1.30
2019-01-31T09:36:14.870Z,1.40
2019-01-31T09:38:57.307Z,1.40
2019-01-31T09:41:39.492Z,1.40
2019-01-31T09:44:21.674Z,1.50
2019-01-31T09:47:04.357Z,1.60
2019-01-31T09:49:46.571Z,1.70
2019-01-31T09:52:28.918Z,1.80
2019-01-31T09:55:11.446Z,1.80
2019-01-31T09:57:53.971Z,1.80
2019-01-31T10:00:35.890Z,1.80
2019-01-31T10:03:18.796Z,1.80
2019-01-31T10:06:00.905Z,1.80
2019-01-31T10:08:43.617Z,1.70
2019-01-31T10:11:25.852Z,1.70
2019-01-31T10:14:08.125Z,1.80
2019-01-31T10:16:49.944Z,1.80
2019-01-31T10:19:32.277Z,1.90
2019-01-31T10:22:14.471Z,1.90
2019-01-31T10:24:56.989Z,1.90
2019-01-31T10:27:38.743Z,1.90
2019-01-31T10:30:20.744Z,1.90
2019-01-31T10:33:02.675Z,2.00
2019-01-31T10:35:44.643Z,2.00
2019-01-31T10:38:26.859Z,2.10
2019-01-31T10:41:09.033Z,2.20
2019-01-31T10:43:50.818Z,2.20
2019-01-31T10:46:33.125Z,2.30
2019-01-31T10:49:15.719Z,2.20
2019-01-31T10:51:57.811Z,2.20
2019-01-31T10:54:39.659Z,2.30
2019-01-31T10:57:21.598Z,2.20
2019-01-31T11:00:05.694Z,2.20
2019-01-31T11:02:48.550Z,2.20
2019-01-31T11:05:31.119Z,2.20
2019-01-31T11:08:13.047Z,2.20
2019-01-31T11:10:55.478Z,2.20
2019-01-31T11:13:40.007Z,2.20
2019-01-31T11:16:21.091Z,2.30
2019-01-31T11:19:12.065Z,2.30
2019-01-31T11:21:46.959Z,2.40
2019-01-31T11:24:28.942Z,2.40
2019-01-31T11:27:11.088Z,2.40
2019-01-31T11:29:53.610Z,2.40
2019-01-31T11:32:38.535Z,2.40
2019-01-31T11:35:19.826Z,2.40
2019-01-31T11:38:01.704Z,2.40
2019-01-31T11:40:44.372Z,2.40
2019-01-31T11:43:26.676Z,2.40
2019-01-31T11:46:08.990Z,2.40
2019-01-31T11:48:51.232Z,2.40
2019-01-31T11:51:33.322Z,2.50
2019-01-31T11:54:16.081Z,2.50
2019-01-31T11:57:05.348Z,2.50
2019-01-31T11:59:42.301Z,2.40
2019-01-31T12:02:24.522Z,2.40
2019-01-31T12:05:06.783Z,2.50
2019-01-31T12:07:48.691Z,2.40
2019-01-31T12:10:30.853Z,2.50
2019-01-31T12:13:23.246Z,2.60
2019-01-31T12:15:56.547Z,2.60
2019-01-31T12:18:38.305Z,2.60
2019-01-31T12:21:20.718Z,2.60
2019-01-31T12:24:02.965Z,2.70
2019-01-31T12:26:45.285Z,2.70
2019-01-31T12:29:27.653Z,2.70
2019-01-31T12:32:10.088Z,2.80
2019-01-31T12:34:52.229Z,2.90
2019-01-31T12:37:34.573Z,2.90
2019-01-31T12:40:17.360Z,2.90
2019-01-31T12:42:59.813Z,2.90
2019-01-31T12:45:41.606Z,2.90
2019-01-31T12:48:24.075Z,2.90
2019-01-31T12:51:06.563Z,3.00
2019-01-31T12:53:48.481Z,3.00
2019-01-31T12:56:30.450Z,2.90
2019-01-31T12:59:12.475Z,3.00
2019-01-31T13:01:54.682Z,3.00
2019-01-31T13:04:37.516Z,3.00
2019-01-31T13:07:19.382Z,3.00
2019-01-31T13:10:01.779Z,3.00
2019-01-31T13:12:49.028Z,3.00
2019-01-31T13:15:30.148Z,3.10
2019-01-31T13:18:12.838Z,3.10
2019-01-31T13:20:55.323Z,3.10
2019-01-31T13:23:37.841Z,3.10
2019-01-31T13:26:20.014Z,3.20
2019-01-31T13:29:01.826Z,3.10
2019-01-31T13:31:44.094Z,3.10
2019-01-31T13:34:26.567Z,3.10
2019-01-31T13:37:08.894Z,3.20
2019-01-31T13:39:51.275Z,3.20
2019-01-31T13:42:33.442Z,3.20
2019-01-31T13:45:15.777Z,3.20
2019-01-31T13:47:58.381Z,3.20
2019-01-31T13:50:40.439Z,3.20
2019-01-31T13:53:22.507Z,3.20
2019-01-31T13:56:04.938Z,3.30
2019-01-31T13:58:47.150Z,3.30
2019-01-31T14:01:28.883Z,3.20
2019-01-31T14:04:10.998Z,3.30
2019-01-31T14:06:53.371Z,3.30
2019-01-31T14:09:35.811Z,3.30
2019-01-31T14:12:18.410Z,3.30
2019-01-31T14:15:00.364Z,3.30
2019-01-31T14:17:42.531Z,3.30
2019-01-31T14:20:24.315Z,3.30
2019-01-31T14:23:06.115Z,3.30
2019-01-31T14:25:48.125Z,3.30
2019-01-31T14:28:30.225Z,3.30
2019-01-31T14:31:12.103Z,3.30
2019-01-31T14:33:54.175Z,3.30
2019-01-31T14:36:36.449Z,3.30
2019-01-31T14:39:18.529Z,3.30
2019-01-31T14:42:01.551Z,3.30
2019-01-31T14:44:43.363Z,3.30
2019-01-31T14:47:25.713Z,3.30
2019-01-31T14:50:07.879Z,3.40
2019-01-31T14:52:49.636Z,3.30
2019-01-31T14:55:32.142Z,3.30
2019-01-31T14:58:14.372Z,3.30
2019-01-31T15:00:56.317Z,3.30
2019-01-31T15:03:38.759Z,3.30
2019-01-31T15:06:20.699Z,3.30
2019-01-31T15:09:02.945Z,3.30
2019-01-31T15:11:45.217Z,3.30
2019-01-31T15:14:31.816Z,3.30
2019-01-31T15:17:11.010Z,3.30
2019-01-31T15:19:53.401Z,3.30
2019-01-31T15:22:35.591Z,3.30
2019-01-31T15:25:18.990Z,3.30
2019-01-31T15:28:01.005Z,3.30
2019-01-31T15:30:43.156Z,3.30
2019-01-31T15:33:25.309Z,3.20
2019-01-31T15:36:07.698Z,3.20
2019-01-31T15:38:50.161Z,3.20
2019-01-31T15:41:32.087Z,3.10
2019-01-31T15:44:14.218Z,3.10
2019-01-31T15:46:56.438Z,3.10
2019-01-31T15:49:38.637Z,3.10
2019-01-31T15:52:20.398Z,3.10
2019-01-31T15:55:02.879Z,3.00
2019-01-31T15:57:45.791Z,3.00
2019-01-31T16:03:44.516Z,2.90
2019-01-31T16:06:26.319Z,2.90
2019-01-31T16:09:08.333Z,2.80
2019-01-31T16:11:50.347Z,2.80
2019-01-31T16:14:32.179Z,2.80
2019-01-31T16:17:14.762Z,2.80
2019-01-31T16:19:56.829Z,2.70
2019-01-31T16:22:39.022Z,2.70
2019-01-31T16:25:21.260Z,2.70
2019-01-31T16:28:03.806Z,2.70
2019-01-31T16:30:45.891Z,2.60
2019-01-31T16:33:28.527Z,2.60
2019-01-31T16:36:10.482Z,2.60
2019-01-31T16:38:53.089Z,2.60
2019-01-31T16:41:35.714Z,2.50
2019-01-31T16:44:18.401Z,2.50
2019-01-31T16:47:00.474Z,2.60
2019-01-31T16:49:42.411Z,2.60
2019-01-31T16:52:25.812Z,2.60
2019-01-31T16:55:07.788Z,2.60
2019-01-31T16:57:50.335Z,2.60
2019-01-31T17:00:32.098Z,2.60
2019-01-31T17:03:14.048Z,2.60
2019-01-31T17:05:56.827Z,2.60
2019-01-31T17:08:38.955Z,2.60
2019-01-31T17:11:21.099Z,2.60
2019-01-31T17:14:03.622Z,2.60
2019-01-31T17:16:45.846Z,2.60
2019-01-31T17:19:28.139Z,2.60
2019-01-31T17:22:11.012Z,2.60
2019-01-31T17:24:52.831Z,2.60
2019-01-31T17:27:34.946Z,2.60
2019-01-31T17:30:17.029Z,2.60
2019-01-31T17:33:04.195Z,2.60
2019-01-31T17:36:09.202Z,2.60
2019-01-31T17:38:58.609Z,2.60
2019-01-31T17:41:37.774Z,2.60
2019-01-31T17:44:19.901Z,2.60
2019-01-31T17:47:03.995Z,2.60
2019-01-31T17:49:48.540Z,2.60
2019-01-31T17:52:30.822Z,2.60
2019-01-31T17:55:13.066Z,2.60
2019-01-31T17:57:55.453Z,2.60
2019-01-31T18:00:41.919Z,2.60
2019-01-31T18:03:23.943Z,2.60
2019-01-31T18:06:06.102Z,2.60
2019-01-31T18:08:48.181Z,2.60
2019-01-31T18:11:31.703Z,2.50
2019-01-31T18:14:13.885Z,2.60
2019-01-31T18:16:55.818Z,2.50
2019-01-31T18:19:38.263Z,2.50
2019-01-31T18:22:20.957Z,2.50
2019-01-31T18:25:03.502Z,2.50
2019-01-31T18:27:45.820Z,2.50
2019-01-31T18:30:28.258Z,2.50
2019-01-31T18:33:10.220Z,2.50
2019-01-31T18:35:52.015Z,2.50
2019-01-31T18:38:34.522Z,2.50
2019-01-31T18:41:17.318Z,2.50
2019-01-31T18:43:59.627Z,2.50
2019-01-31T18:46:41.853Z,2.50
2019-01-31T18:49:24.399Z,2.50
2019-01-31T18:52:07.060Z,2.50
2019-01-31T18:54:50.089Z,2.50
2019-01-31T18:57:32.241Z,2.60
2019-01-31T19:00:15.857Z,2.60
2019-01-31T19:02:58.159Z,2.60
2019-01-31T19:05:40.767Z,2.60
2019-01-31T19:08:24.517Z,2.60
2019-01-31T19:11:06.545Z,2.60
2019-01-31T19:13:48.442Z,2.70
2019-01-31T19:16:32.356Z,2.60
2019-01-31T19:19:14.527Z,2.60
2019-01-31T19:21:57.242Z,2.70
2019-01-31T19:24:39.783Z,2.70
2019-01-31T19:27:22.195Z,2.60
2019-01-31T19:30:04.698Z,2.60
2019-01-31T19:32:45.433Z,2.60
2019-01-31T19:35:35.035Z,2.60
2019-01-31T19:38:39.170Z,2.50
2019-01-31T19:41:35.498Z,2.50
2019-01-31T19:44:25.324Z,2.50
2019-01-31T19:47:15.323Z,2.50
2019-01-31T19:56:48.957Z,2.60
2019-01-31T19:59:38.708Z,2.60
2019-01-31T20:02:42.145Z,2.60
2019-01-31T20:08:31.638Z,2.60
2019-01-31T20:11:13.961Z,2.70
2019-01-31T20:13:56.557Z,2.70
2019-01-31T20:16:39.210Z,2.70
2019-01-31T20:19:21.476Z,2.80
2019-01-31T20:22:03.812Z,2.80
2019-01-31T20:24:46.368Z,2.80
2019-01-31T20:27:28.630Z,2.70
2019-01-31T20:30:10.778Z,2.70
2019-01-31T20:32:53.447Z,2.70
2019-01-31T20:35:35.992Z,2.70
2019-01-31T20:38:17.962Z,2.70
2019-01-31T20:41:00.134Z,2.70
2019-01-31T20:43:42.493Z,2.70
2019-01-31T20:46:25.230Z,2.70
2019-01-31T20:49:07.635Z,2.70
2019-01-31T20:51:49.640Z,2.70
2019-01-31T20:54:31.846Z,2.70
2019-01-31T20:57:13.868Z,2.70
2019-01-31T20:59:56.456Z,2.70
2019-01-31T21:02:38.941Z,2.70
2019-01-31T21:05:21.414Z,2.80
2019-01-31T21:08:03.938Z,2.80
2019-01-31T21:10:46.528Z,2.70
2019-01-31T21:13:29.115Z,2.80
2019-01-31T21:16:11.106Z,2.80
2019-01-31T21:18:53.492Z,2.80
2019-01-31T21:21:35.427Z,2.90
2019-01-31T21:24:17.553Z,2.80
2019-01-31T21:26:59.911Z,2.80
2019-01-31T21:29:42.239Z,2.80
2019-01-31T21:32:24.335Z,2.80
2019-01-31T21:35:06.339Z,2.80
2019-01-31T21:37:48.889Z,2.80
2019-01-31T21:40:31.201Z,2.80
2019-01-31T21:43:13.255Z,2.80
2019-01-31T21:45:55.759Z,2.80
2019-01-31T21:48:38.339Z,2.80
2019-01-31T21:51:20.739Z,2.80
2019-01-31T21:54:03.087Z,2.80
2019-01-31T21:56:45.163Z,2.80
2019-01-31T21:59:27.254Z,2.80
2019-01-31T22:02:09.685Z,2.80
2019-01-31T22:04:51.909Z,2.90
2019-01-31T22:07:34.286Z,2.80
2019-01-31T22:10:18.466Z,2.80
2019-01-31T22:13:02.974Z,2.80
2019-01-31T22:15:44.849Z,2.80
2019-01-31T22:18:26.619Z,2.80
2019-01-31T22:21:08.421Z,2.90
2019-01-31T22:23:50.531Z,2.90
2019-01-31T22:26:32.772Z,2.80
2019-01-31T22:29:14.950Z,2.90
2019-01-31T22:31:57.303Z,2.90
2019-01-31T22:34:39.718Z,2.90
2019-01-31T22:37:22.446Z,2.80
2019-01-31T22:40:04.524Z,2.80
2019-01-31T22:42:46.515Z,2.80
2019-01-31T22:45:28.406Z,2.80
2019-01-31T22:48:10.827Z,2.80
2019-01-31T22:50:53.545Z,2.70
2019-01-31T22:53:35.513Z,2.70
2019-01-31T22:56:17.697Z,2.80
2019-01-31T22:58:59.559Z,2.80
2019-01-31T23:04:44.398Z,2.70
2019-01-31T23:07:26.699Z,2.70
2019-01-31T23:10:08.716Z,2.60
2019-01-31T23:12:51.098Z,2.70
2019-01-31T23:15:32.880Z,2.60
2019-01-31T23:18:15.339Z,2.60
2019-01-31T23:20:58.103Z,2.60
2019-01-31T23:23:40.742Z,2.70
2019-01-31T23:26:22.480Z,2.80
2019-01-31T23:29:04.467Z,2.80
2019-01-31T23:31:46.627Z,2.90
2019-01-31T23:34:28.856Z,2.90
2019-01-31T23:37:11.233Z,2.90
2019-01-31T23:39:53.596Z,2.80
2019-01-31T23:42:35.647Z,2.80
2019-01-31T23:45:18.812Z,2.70
2019-01-31T23:48:00.845Z,2.70
2019-01-31T23:50:43.138Z,2.70
2019-01-31T23:53:25.195Z,2.70
2019-01-31T23:56:07.694Z,2.80
2019-01-31T23:58:49.881Z,2.90
